sensor_id;sensor_type;location;lat;lon;timestamp;pressure;altitude;pressure_sealevel;temperature;humidity
69848;BME280;57143;55.940;37.496;2023-11-21T00:00:16;99180.72;;;-8.06;100.00
69848;BME280;57143;55.940;37.496;2023-11-21T00:02:44;99184.03;;;-8.04;100.00
69848;BME280;57143;55.940;37.496;2023-11-21T00:05:13;99174.63;;;-7.95;100.00
69848;BME280;57143;55.940;37.496;2023-11-21T00:07:43;99171.97;;;-8.06;100.00
69848;BME280;57143;55.940;37.496;2023-11-21T00:10:11;99173.19;;;-7.99;100.00
69848;BME280;57143;55.940;37.496;2023-11-21T00:12:40;99155.59;;;-8.10;100.00
69848;BME280;57143;55.940;37.496;2023-11-21T00:15:08;99160.59;;;-8.18;100.00
69848;BME280;57143;55.940;37.496;2023-11-21T00:17:36;99150.16;;;-8.19;100.00
69848;BME280;57143;55.940;37.496;2023-11-21T00:20:04;99152.34;;;-8.24;100.00
69848;BME280;57143;55.940;37.496;2023-11-21T00:22:33;99163.31;;;-8.19;100.00
69848;BME280;57143;55.940;37.496;2023-11-21T00:25:02;99108.19;;;-8.54;100.00
69848;BME280;57143;55.940;37.496;2023-11-21T00:27:32;99181.38;;;-8.15;100.00
69848;BME280;57143;55.940;37.496;2023-11-21T00:30:00;99151.97;;;-8.31;100.00
69848;BME280;57143;55.940;37.496;2023-11-21T00:32:32;99165.78;;;-8.40;100.00
69848;BME280;57143;55.940;37.496;2023-11-21T00:35:00;99174.44;;;-8.27;100.00
69848;BME280;57143;55.940;37.496;2023-11-21T00:37:27;99153.19;;;-8.24;100.00
69848;BME280;57143;55.940;37.496;2023-11-21T00:39:55;99181.81;;;-8.21;100.00
69848;BME280;57143;55.940;37.496;2023-11-21T00:42:23;99187.47;;;-8.25;100.00
69848;BME280;57143;55.940;37.496;2023-11-21T00:44:51;99181.25;;;-8.24;100.00
69848;BME280;57143;55.940;37.496;2023-11-21T00:47:18;99162.25;;;-8.28;100.00
69848;BME280;57143;55.940;37.496;2023-11-21T00:49:45;99185.91;;;-8.17;100.00
69848;BME280;57143;55.940;37.496;2023-11-21T00:52:12;99137.59;;;-8.38;100.00
69848;BME280;57143;55.940;37.496;2023-11-21T00:54:40;99178.63;;;-8.24;100.00
69848;BME280;57143;55.940;37.496;2023-11-21T00:57:07;99173.00;;;-8.20;100.00
69848;BME280;57143;55.940;37.496;2023-11-21T00:59:35;99149.56;;;-8.34;100.00
69848;BME280;57143;55.940;37.496;2023-11-21T01:02:02;99170.47;;;-8.32;100.00
69848;BME280;57143;55.940;37.496;2023-11-21T01:04:30;99183.25;;;-8.28;100.00
69848;BME280;57143;55.940;37.496;2023-11-21T01:06:59;99171.69;;;-8.25;100.00
69848;BME280;57143;55.940;37.496;2023-11-21T01:09:26;99178.47;;;-8.23;100.00
69848;BME280;57143;55.940;37.496;2023-11-21T01:11:54;99164.16;;;-8.30;100.00
69848;BME280;57143;55.940;37.496;2023-11-21T01:14:21;99190.44;;;-8.30;100.00
69848;BME280;57143;55.940;37.496;2023-11-21T01:16:49;99150.50;;;-8.35;100.00
69848;BME280;57143;55.940;37.496;2023-11-21T01:19:17;99175.19;;;-8.25;100.00
69848;BME280;57143;55.940;37.496;2023-11-21T01:21:44;99179.31;;;-8.22;100.00
69848;BME280;57143;55.940;37.496;2023-11-21T01:24:11;99189.50;;;-8.18;100.00
69848;BME280;57143;55.940;37.496;2023-11-21T01:26:38;99183.06;;;-8.25;100.00
69848;BME280;57143;55.940;37.496;2023-11-21T01:29:06;99154.09;;;-8.36;100.00
69848;BME280;57143;55.940;37.496;2023-11-21T01:31:33;99180.59;;;-8.39;100.00
69848;BME280;57143;55.940;37.496;2023-11-21T01:34:01;99172.88;;;-8.53;100.00
69848;BME280;57143;55.940;37.496;2023-11-21T01:36:32;99181.53;;;-8.40;100.00
69848;BME280;57143;55.940;37.496;2023-11-21T01:38:59;99174.50;;;-8.40;100.00
69848;BME280;57143;55.940;37.496;2023-11-21T01:41:27;99180.13;;;-8.33;100.00
69848;BME280;57143;55.940;37.496;2023-11-21T01:43:55;99190.25;;;-8.40;100.00
69848;BME280;57143;55.940;37.496;2023-11-21T01:46:22;99199.59;;;-8.36;100.00
69848;BME280;57143;55.940;37.496;2023-11-21T01:48:50;99189.53;;;-8.42;100.00
69848;BME280;57143;55.940;37.496;2023-11-21T01:51:20;99169.56;;;-8.68;100.00
69848;BME280;57143;55.940;37.496;2023-11-21T01:53:47;99187.25;;;-8.46;100.00
69848;BME280;57143;55.940;37.496;2023-11-21T01:56:14;99211.00;;;-8.48;100.00
69848;BME280;57143;55.940;37.496;2023-11-21T01:58:42;99215.88;;;-8.54;100.00
69848;BME280;57143;55.940;37.496;2023-11-21T02:01:12;99192.66;;;-8.60;100.00
69848;BME280;57143;55.940;37.496;2023-11-21T02:03:39;99209.56;;;-8.64;100.00
69848;BME280;57143;55.940;37.496;2023-11-21T02:06:07;99195.94;;;-8.69;100.00
69848;BME280;57143;55.940;37.496;2023-11-21T02:08:37;99213.91;;;-8.63;100.00
69848;BME280;57143;55.940;37.496;2023-11-21T02:11:05;99200.53;;;-8.60;100.00
69848;BME280;57143;55.940;37.496;2023-11-21T02:13:33;99204.22;;;-8.63;100.00
69848;BME280;57143;55.940;37.496;2023-11-21T02:16:01;99194.69;;;-8.76;100.00
69848;BME280;57143;55.940;37.496;2023-11-21T02:18:31;99201.00;;;-8.66;100.00
69848;BME280;57143;55.940;37.496;2023-11-21T02:20:58;99214.31;;;-8.69;100.00
69848;BME280;57143;55.940;37.496;2023-11-21T02:23:29;99204.31;;;-8.64;100.00
69848;BME280;57143;55.940;37.496;2023-11-21T02:25:57;99205.41;;;-8.67;100.00
69848;BME280;57143;55.940;37.496;2023-11-21T02:28:25;99203.53;;;-8.77;100.00
69848;BME280;57143;55.940;37.496;2023-11-21T02:30:52;99199.31;;;-8.67;100.00
69848;BME280;57143;55.940;37.496;2023-11-21T02:33:22;99198.16;;;-8.63;100.00
69848;BME280;57143;55.940;37.496;2023-11-21T02:35:49;99195.13;;;-8.70;100.00
69848;BME280;57143;55.940;37.496;2023-11-21T02:38:19;99192.50;;;-8.70;100.00
69848;BME280;57143;55.940;37.496;2023-11-21T02:40:47;99210.44;;;-8.76;100.00
69848;BME280;57143;55.940;37.496;2023-11-21T02:43:15;99203.44;;;-8.76;100.00
69848;BME280;57143;55.940;37.496;2023-11-21T02:45:42;99197.16;;;-8.86;100.00
69848;BME280;57143;55.940;37.496;2023-11-21T02:48:09;99191.91;;;-8.86;100.00
69848;BME280;57143;55.940;37.496;2023-11-21T02:50:36;99203.66;;;-8.79;100.00
69848;BME280;57143;55.940;37.496;2023-11-21T02:53:04;99226.09;;;-8.75;100.00
69848;BME280;57143;55.940;37.496;2023-11-21T02:55:32;99201.34;;;-8.83;100.00
69848;BME280;57143;55.940;37.496;2023-11-21T02:58:03;99217.06;;;-8.71;100.00
69848;BME280;57143;55.940;37.496;2023-11-21T03:00:30;99211.41;;;-8.77;100.00
69848;BME280;57143;55.940;37.496;2023-11-21T03:02:57;99216.94;;;-8.69;100.00
69848;BME280;57143;55.940;37.496;2023-11-21T03:05:25;99219.25;;;-8.65;100.00
69848;BME280;57143;55.940;37.496;2023-11-21T03:07:52;99223.63;;;-8.89;100.00
69848;BME280;57143;55.940;37.496;2023-11-21T03:10:19;99218.56;;;-8.92;100.00
69848;BME280;57143;55.940;37.496;2023-11-21T03:12:46;99222.06;;;-8.91;100.00
69848;BME280;57143;55.940;37.496;2023-11-21T03:15:15;99211.44;;;-8.90;100.00
69848;BME280;57143;55.940;37.496;2023-11-21T03:17:42;99215.44;;;-8.97;100.00
69848;BME280;57143;55.940;37.496;2023-11-21T03:20:10;99218.28;;;-9.00;100.00
69848;BME280;57143;55.940;37.496;2023-11-21T03:22:39;99201.19;;;-9.05;100.00
69848;BME280;57143;55.940;37.496;2023-11-21T03:25:07;99195.72;;;-9.02;100.00
69848;BME280;57143;55.940;37.496;2023-11-21T03:27:36;99197.41;;;-9.01;100.00
69848;BME280;57143;55.940;37.496;2023-11-21T03:30:07;99180.19;;;-9.05;100.00
69848;BME280;57143;55.940;37.496;2023-11-21T03:32:36;99142.94;;;-9.23;100.00
69848;BME280;57143;55.940;37.496;2023-11-21T03:35:04;99183.75;;;-8.94;100.00
69848;BME280;57143;55.940;37.496;2023-11-21T03:37:32;99179.50;;;-8.84;100.00
69848;BME280;57143;55.940;37.496;2023-11-21T03:39:59;99194.81;;;-8.78;100.00
69848;BME280;57143;55.940;37.496;2023-11-21T03:42:26;99146.38;;;-8.97;100.00
69848;BME280;57143;55.940;37.496;2023-11-21T03:44:53;99192.50;;;-8.70;100.00
69848;BME280;57143;55.940;37.496;2023-11-21T03:47:20;99191.44;;;-8.67;100.00
69848;BME280;57143;55.940;37.496;2023-11-21T03:49:49;99200.47;;;-8.71;100.00
69848;BME280;57143;55.940;37.496;2023-11-21T03:52:16;99191.97;;;-8.75;100.00
69848;BME280;57143;55.940;37.496;2023-11-21T03:54:44;99207.41;;;-8.70;100.00
69848;BME280;57143;55.940;37.496;2023-11-21T03:57:12;99214.53;;;-8.60;100.00
69848;BME280;57143;55.940;37.496;2023-11-21T03:59:40;99200.78;;;-8.63;100.00
69848;BME280;57143;55.940;37.496;2023-11-21T04:02:07;99199.91;;;-8.64;100.00
69848;BME280;57143;55.940;37.496;2023-11-21T04:04:34;99197.69;;;-8.57;100.00
69848;BME280;57143;55.940;37.496;2023-11-21T04:07:03;99196.41;;;-8.52;100.00
69848;BME280;57143;55.940;37.496;2023-11-21T04:09:30;99196.56;;;-8.66;100.00
69848;BME280;57143;55.940;37.496;2023-11-21T04:11:57;99196.44;;;-8.64;100.00
69848;BME280;57143;55.940;37.496;2023-11-21T04:14:24;99139.41;;;-8.86;100.00
69848;BME280;57143;55.940;37.496;2023-11-21T04:16:51;99176.00;;;-8.72;100.00
69848;BME280;57143;55.940;37.496;2023-11-21T04:19:19;99189.91;;;-8.59;100.00
69848;BME280;57143;55.940;37.496;2023-11-21T04:21:46;99201.31;;;-8.47;100.00
69848;BME280;57143;55.940;37.496;2023-11-21T04:24:15;99199.88;;;-8.51;100.00
69848;BME280;57143;55.940;37.496;2023-11-21T04:26:43;99198.53;;;-8.57;100.00
69848;BME280;57143;55.940;37.496;2023-11-21T04:29:10;99207.88;;;-8.53;100.00
69848;BME280;57143;55.940;37.496;2023-11-21T04:31:37;99191.38;;;-8.55;100.00
69848;BME280;57143;55.940;37.496;2023-11-21T04:34:04;99198.88;;;-8.38;100.00
69848;BME280;57143;55.940;37.496;2023-11-21T04:36:31;99208.75;;;-8.65;100.00
69848;BME280;57143;55.940;37.496;2023-11-21T04:38:59;99174.94;;;-8.69;100.00
69848;BME280;57143;55.940;37.496;2023-11-21T04:41:28;99187.53;;;-8.62;100.00
69848;BME280;57143;55.940;37.496;2023-11-21T04:43:54;99213.63;;;-8.48;100.00
69848;BME280;57143;55.940;37.496;2023-11-21T04:46:21;99161.03;;;-8.82;100.00
69848;BME280;57143;55.940;37.496;2023-11-21T04:48:49;99212.69;;;-8.47;100.00
69848;BME280;57143;55.940;37.496;2023-11-21T04:51:16;99216.16;;;-8.46;100.00
69848;BME280;57143;55.940;37.496;2023-11-21T04:53:43;99213.75;;;-8.49;100.00
69848;BME280;57143;55.940;37.496;2023-11-21T04:56:10;99203.41;;;-8.63;100.00
69848;BME280;57143;55.940;37.496;2023-11-21T04:58:39;99201.19;;;-8.69;100.00
69848;BME280;57143;55.940;37.496;2023-11-21T05:01:07;99183.88;;;-8.72;100.00
69848;BME280;57143;55.940;37.496;2023-11-21T05:03:34;99239.13;;;-8.37;100.00
69848;BME280;57143;55.940;37.496;2023-11-21T05:06:04;99211.91;;;-8.60;100.00
69848;BME280;57143;55.940;37.496;2023-11-21T05:08:32;99199.75;;;-8.73;100.00
69848;BME280;57143;55.940;37.496;2023-11-21T05:10:59;99241.19;;;-8.53;100.00
69848;BME280;57143;55.940;37.496;2023-11-21T05:13:26;99247.44;;;-8.43;100.00
69848;BME280;57143;55.940;37.496;2023-11-21T05:15:56;99233.06;;;-8.50;100.00
69848;BME280;57143;55.940;37.496;2023-11-21T05:18:23;99242.84;;;-8.52;100.00
69848;BME280;57143;55.940;37.496;2023-11-21T05:20:53;99249.06;;;-8.53;100.00
69848;BME280;57143;55.940;37.496;2023-11-21T05:23:20;99246.81;;;-8.47;100.00
69848;BME280;57143;55.940;37.496;2023-11-21T05:25:47;99214.53;;;-8.60;100.00
69848;BME280;57143;55.940;37.496;2023-11-21T05:28:14;99253.56;;;-8.55;100.00
69848;BME280;57143;55.940;37.496;2023-11-21T05:30:42;99225.69;;;-8.69;100.00
69848;BME280;57143;55.940;37.496;2023-11-21T05:33:11;99229.94;;;-8.55;100.00
69848;BME280;57143;55.940;37.496;2023-11-21T05:35:38;99223.03;;;-8.56;100.00
69848;BME280;57143;55.940;37.496;2023-11-21T05:38:05;99225.81;;;-8.47;100.00
69848;BME280;57143;55.940;37.496;2023-11-21T05:40:32;99222.78;;;-8.53;100.00
69848;BME280;57143;55.940;37.496;2023-11-21T05:43:00;99241.16;;;-8.41;100.00
69848;BME280;57143;55.940;37.496;2023-11-21T05:45:27;99233.88;;;-8.37;100.00
69848;BME280;57143;55.940;37.496;2023-11-21T05:47:55;99243.69;;;-8.52;100.00
69848;BME280;57143;55.940;37.496;2023-11-21T05:50:24;99224.03;;;-8.46;100.00
69848;BME280;57143;55.940;37.496;2023-11-21T05:52:51;99207.81;;;-8.40;100.00
69848;BME280;57143;55.940;37.496;2023-11-21T05:55:18;99216.16;;;-8.46;100.00
69848;BME280;57143;55.940;37.496;2023-11-21T05:57:47;99172.63;;;-8.61;100.00
69848;BME280;57143;55.940;37.496;2023-11-21T06:00:14;99234.50;;;-8.33;100.00
69848;BME280;57143;55.940;37.496;2023-11-21T06:02:46;99237.22;;;-8.35;100.00
69848;BME280;57143;55.940;37.496;2023-11-21T06:05:17;99185.78;;;-8.74;100.00
69848;BME280;57143;55.940;37.496;2023-11-21T06:07:46;99238.78;;;-8.32;100.00
69848;BME280;57143;55.940;37.496;2023-11-21T06:10:13;99244.34;;;-8.13;100.00
69848;BME280;57143;55.940;37.496;2023-11-21T06:12:41;99238.25;;;-8.25;100.00
69848;BME280;57143;55.940;37.496;2023-11-21T06:15:10;99235.13;;;-8.19;100.00
69848;BME280;57143;55.940;37.496;2023-11-21T06:17:39;99255.09;;;-7.93;100.00
69848;BME280;57143;55.940;37.496;2023-11-21T06:20:08;99259.97;;;-7.99;100.00
69848;BME280;57143;55.940;37.496;2023-11-21T06:22:41;99262.09;;;-8.04;100.00
69848;BME280;57143;55.940;37.496;2023-11-21T06:25:11;99254.19;;;-8.04;100.00
69848;BME280;57143;55.940;37.496;2023-11-21T06:27:40;99257.28;;;-7.87;100.00
69848;BME280;57143;55.940;37.496;2023-11-21T06:30:08;99243.28;;;-7.87;100.00
69848;BME280;57143;55.940;37.496;2023-11-21T06:32:36;99259.38;;;-7.92;100.00
69848;BME280;57143;55.940;37.496;2023-11-21T06:35:04;99241.72;;;-8.13;100.00
69848;BME280;57143;55.940;37.496;2023-11-21T06:37:32;99252.25;;;-8.13;100.00
69848;BME280;57143;55.940;37.496;2023-11-21T06:40:00;99277.38;;;-8.09;100.00
69848;BME280;57143;55.940;37.496;2023-11-21T06:42:32;99255.03;;;-8.04;100.00
69848;BME280;57143;55.940;37.496;2023-11-21T06:45:00;99265.53;;;-8.04;100.00
69848;BME280;57143;55.940;37.496;2023-11-21T06:47:34;99270.84;;;-7.93;100.00
69848;BME280;57143;55.940;37.496;2023-11-21T06:50:01;99259.97;;;-7.99;100.00
69848;BME280;57143;55.940;37.496;2023-11-21T06:52:29;99272.31;;;-8.12;100.00
69848;BME280;57143;55.940;37.496;2023-11-21T06:54:56;99281.16;;;-8.13;100.00
69848;BME280;57143;55.940;37.496;2023-11-21T06:57:24;99278.78;;;-8.05;100.00
69848;BME280;57143;55.940;37.496;2023-11-21T06:59:54;99287.75;;;-8.08;100.00
69848;BME280;57143;55.940;37.496;2023-11-21T07:02:23;99298.16;;;-8.06;100.00
69848;BME280;57143;55.940;37.496;2023-11-21T07:04:50;99304.53;;;-7.98;100.00
69848;BME280;57143;55.940;37.496;2023-11-21T07:07:18;99290.53;;;-7.98;100.00
69848;BME280;57143;55.940;37.496;2023-11-21T07:09:45;99288.81;;;-8.10;100.00
69848;BME280;57143;55.940;37.496;2023-11-21T07:12:13;99289.72;;;-7.99;100.00
69848;BME280;57143;55.940;37.496;2023-11-21T07:14:41;99294.28;;;-7.90;100.00
69848;BME280;57143;55.940;37.496;2023-11-21T07:17:12;99296.88;;;-7.77;100.00
69848;BME280;57143;55.940;37.496;2023-11-21T07:19:39;99299.06;;;-7.71;100.00
69848;BME280;57143;55.940;37.496;2023-11-21T07:22:07;99284.16;;;-7.83;100.00
69848;BME280;57143;55.940;37.496;2023-11-21T07:24:35;99277.22;;;-7.84;100.00
69848;BME280;57143;55.940;37.496;2023-11-21T07:27:03;99264.09;;;-8.08;100.00
69848;BME280;57143;55.940;37.496;2023-11-21T07:29:30;99314.09;;;-7.97;100.00
69848;BME280;57143;55.940;37.496;2023-11-21T07:31:58;99307.72;;;-7.82;100.00
69848;BME280;57143;55.940;37.496;2023-11-21T07:34:27;99282.59;;;-7.86;100.00
69848;BME280;57143;55.940;37.496;2023-11-21T07:36:55;99294.16;;;-7.88;100.00
69848;BME280;57143;55.940;37.496;2023-11-21T07:39:22;99309.22;;;-7.67;100.00
69848;BME280;57143;55.940;37.496;2023-11-21T07:41:49;99297.31;;;-7.60;100.00
69848;BME280;57143;55.940;37.496;2023-11-21T07:44:17;99287.47;;;-7.69;100.00
69848;BME280;57143;55.940;37.496;2023-11-21T07:46:45;99296.22;;;-7.57;100.00
69848;BME280;57143;55.940;37.496;2023-11-21T07:49:13;99315.00;;;-7.62;100.00
69848;BME280;57143;55.940;37.496;2023-11-21T07:51:44;99311.97;;;-7.68;100.00
69848;BME280;57143;55.940;37.496;2023-11-21T07:54:11;99302.00;;;-7.76;100.00
69848;BME280;57143;55.940;37.496;2023-11-21T07:56:38;99313.69;;;-7.80;100.00
69848;BME280;57143;55.940;37.496;2023-11-21T07:59:06;99304.19;;;-7.70;100.00
69848;BME280;57143;55.940;37.496;2023-11-21T08:01:33;99322.63;;;-7.70;100.00
69848;BME280;57143;55.940;37.496;2023-11-21T08:04:00;99310.28;;;-7.69;100.00
69848;BME280;57143;55.940;37.496;2023-11-21T08:06:29;99317.56;;;-7.73;100.00
69848;BME280;57143;55.940;37.496;2023-11-21T08:08:59;99282.66;;;-7.75;100.00
69848;BME280;57143;55.940;37.496;2023-11-21T08:11:27;99320.00;;;-7.59;100.00
69848;BME280;57143;55.940;37.496;2023-11-21T08:13:55;99289.66;;;-7.52;100.00
69848;BME280;57143;55.940;37.496;2023-11-21T08:16:23;99302.13;;;-7.43;100.00
69848;BME280;57143;55.940;37.496;2023-11-21T08:18:51;99307.34;;;-7.54;100.00
69848;BME280;57143;55.940;37.496;2023-11-21T08:21:18;99298.53;;;-7.53;100.00
69848;BME280;57143;55.940;37.496;2023-11-21T08:23:45;99278.91;;;-7.49;100.00
69848;BME280;57143;55.940;37.496;2023-11-21T08:26:21;99263.22;;;-7.61;100.00
69848;BME280;57143;55.940;37.496;2023-11-21T08:28:48;99276.03;;;-7.57;100.00
69848;BME280;57143;55.940;37.496;2023-11-21T08:31:15;99286.34;;;-7.43;100.00
69848;BME280;57143;55.940;37.496;2023-11-21T08:33:42;99276.19;;;-7.47;100.00
69848;BME280;57143;55.940;37.496;2023-11-21T08:36:10;99265.19;;;-7.41;100.00
69848;BME280;57143;55.940;37.496;2023-11-21T08:38:37;99287.81;;;-7.39;100.00
69848;BME280;57143;55.940;37.496;2023-11-21T08:41:06;99250.69;;;-7.47;100.00
69848;BME280;57143;55.940;37.496;2023-11-21T08:43:36;99296.06;;;-7.32;100.00
69848;BME280;57143;55.940;37.496;2023-11-21T08:46:05;99204.09;;;-7.79;100.00
69848;BME280;57143;55.940;37.496;2023-11-21T08:48:35;99271.66;;;-7.34;100.00
69848;BME280;57143;55.940;37.496;2023-11-21T08:51:03;99265.78;;;-7.38;100.00
69848;BME280;57143;55.940;37.496;2023-11-21T08:53:30;99243.00;;;-7.61;100.00
69848;BME280;57143;55.940;37.496;2023-11-21T08:55:58;99262.78;;;-7.44;100.00
69848;BME280;57143;55.940;37.496;2023-11-21T08:58:27;99284.56;;;-7.31;100.00
69848;BME280;57143;55.940;37.496;2023-11-21T09:00:56;99284.56;;;-7.31;100.00
69848;BME280;57143;55.940;37.496;2023-11-21T09:03:23;99270.69;;;-7.33;100.00
69848;BME280;57143;55.940;37.496;2023-11-21T09:05:51;99244.81;;;-7.50;100.00
69848;BME280;57143;55.940;37.496;2023-11-21T09:08:18;99276.19;;;-7.36;100.00
69848;BME280;57143;55.940;37.496;2023-11-21T09:10:47;99284.31;;;-7.39;100.00
69848;BME280;57143;55.940;37.496;2023-11-21T09:13:15;99276.31;;;-7.38;100.00
69848;BME280;57143;55.940;37.496;2023-11-21T09:15:42;99292.78;;;-7.47;100.00
69848;BME280;57143;55.940;37.496;2023-11-21T09:18:13;99283.09;;;-7.46;100.00
69848;BME280;57143;55.940;37.496;2023-11-21T09:20:41;99275.66;;;-7.63;100.00
69848;BME280;57143;55.940;37.496;2023-11-21T09:23:09;99285.00;;;-7.48;100.00
69848;BME280;57143;55.940;37.496;2023-11-21T09:25:37;99293.75;;;-7.48;100.00
69848;BME280;57143;55.940;37.496;2023-11-21T09:28:05;99278.69;;;-7.35;100.00
69848;BME280;57143;55.940;37.496;2023-11-21T09:30:34;99270.59;;;-7.32;100.00
69848;BME280;57143;55.940;37.496;2023-11-21T09:33:01;99301.47;;;-7.23;100.00
69848;BME280;57143;55.940;37.496;2023-11-21T09:35:32;99299.34;;;-7.06;100.00
69848;BME280;57143;55.940;37.496;2023-11-21T09:37:59;99301.81;;;-7.16;100.00
69848;BME280;57143;55.940;37.496;2023-11-21T09:40:31;99277.53;;;-7.31;100.00
69848;BME280;57143;55.940;37.496;2023-11-21T09:42:58;99305.63;;;-7.31;100.00
69848;BME280;57143;55.940;37.496;2023-11-21T09:45:27;99309.41;;;-7.12;100.00
69848;BME280;57143;55.940;37.496;2023-11-21T09:47:57;99296.69;;;-7.18;100.00
69848;BME280;57143;55.940;37.496;2023-11-21T09:50:25;99304.38;;;-7.15;100.00
69848;BME280;57143;55.940;37.496;2023-11-21T09:52:58;99304.75;;;-7.08;100.00
69848;BME280;57143;55.940;37.496;2023-11-21T09:55:34;99311.19;;;-7.12;100.00
69848;BME280;57143;55.940;37.496;2023-11-21T09:58:03;99327.94;;;-7.13;100.00
69848;BME280;57143;55.940;37.496;2023-11-21T10:00:33;99318.63;;;-7.06;100.00
69848;BME280;57143;55.940;37.496;2023-11-21T10:03:01;99322.69;;;-7.13;100.00
69848;BME280;57143;55.940;37.496;2023-11-21T10:05:28;99334.88;;;-7.12;100.00
69848;BME280;57143;55.940;37.496;2023-11-21T10:08:00;99319.88;;;-7.23;100.00
69848;BME280;57143;55.940;37.496;2023-11-21T10:10:27;99336.34;;;-7.08;100.00
69848;BME280;57143;55.940;37.496;2023-11-21T10:12:57;99326.28;;;-7.03;100.00
69848;BME280;57143;55.940;37.496;2023-11-21T10:15:27;99312.16;;;-7.13;100.00
69848;BME280;57143;55.940;37.496;2023-11-21T10:17:55;99325.81;;;-6.97;100.00
69848;BME280;57143;55.940;37.496;2023-11-21T10:20:23;99326.03;;;-7.00;100.00
69848;BME280;57143;55.940;37.496;2023-11-21T10:22:51;99327.94;;;-7.02;100.00
69848;BME280;57143;55.940;37.496;2023-11-21T10:25:20;99327.47;;;-7.07;100.00
69848;BME280;57143;55.940;37.496;2023-11-21T10:27:48;99313.94;;;-7.14;100.00
69848;BME280;57143;55.940;37.496;2023-11-21T10:30:18;99323.16;;;-7.08;100.00
69848;BME280;57143;55.940;37.496;2023-11-21T10:32:45;99333.34;;;-7.03;100.00
69848;BME280;57143;55.940;37.496;2023-11-21T10:35:12;99327.84;;;-7.00;100.00
69848;BME280;57143;55.940;37.496;2023-11-21T10:37:40;99336.59;;;-7.00;100.00
69848;BME280;57143;55.940;37.496;2023-11-21T10:40:08;99329.03;;;-6.93;100.00
69848;BME280;57143;55.940;37.496;2023-11-21T10:42:40;99315.00;;;-7.16;100.00
69848;BME280;57143;55.940;37.496;2023-11-21T10:45:08;99295.16;;;-7.20;100.00
69848;BME280;57143;55.940;37.496;2023-11-21T10:47:39;99323.72;;;-7.27;100.00
69848;BME280;57143;55.940;37.496;2023-11-21T10:50:07;99265.34;;;-7.32;100.00
69848;BME280;57143;55.940;37.496;2023-11-21T10:52:39;99277.38;;;-7.40;100.00
69848;BME280;57143;55.940;37.496;2023-11-21T10:55:18;99318.34;;;-7.25;100.00
69848;BME280;57143;55.940;37.496;2023-11-21T10:57:52;99319.31;;;-7.15;100.00
69848;BME280;57143;55.940;37.496;2023-11-21T11:00:20;99298.94;;;-7.24;100.00
69848;BME280;57143;55.940;37.496;2023-11-21T11:02:50;99329.13;;;-7.17;100.00
69848;BME280;57143;55.940;37.496;2023-11-21T11:05:20;99286.75;;;-7.25;100.00
69848;BME280;57143;55.940;37.496;2023-11-21T11:07:51;99332.72;;;-7.07;100.00
69848;BME280;57143;55.940;37.496;2023-11-21T11:10:21;99331.81;;;-6.95;100.00
69848;BME280;57143;55.940;37.496;2023-11-21T11:12:50;99330.78;;;-7.16;100.00
69848;BME280;57143;55.940;37.496;2023-11-21T11:15:19;99325.94;;;-7.09;100.00
69848;BME280;57143;55.940;37.496;2023-11-21T11:17:47;99277.03;;;-7.25;100.00
69848;BME280;57143;55.940;37.496;2023-11-21T11:20:16;99280.16;;;-7.31;100.00
69848;BME280;57143;55.940;37.496;2023-11-21T11:22:56;99317.88;;;-7.19;100.00
69848;BME280;57143;55.940;37.496;2023-11-21T11:25:37;99308.75;;;-7.26;100.00
69848;BME280;57143;55.940;37.496;2023-11-21T11:28:11;99308.88;;;-7.28;100.00
69848;BME280;57143;55.940;37.496;2023-11-21T11:30:50;99326.38;;;-7.16;100.00
69848;BME280;57143;55.940;37.496;2023-11-21T11:33:26;99333.91;;;-7.22;100.00
69848;BME280;57143;55.940;37.496;2023-11-21T11:36:03;99348.03;;;-7.23;100.00
69848;BME280;57143;55.940;37.496;2023-11-21T11:38:34;99346.88;;;-7.08;100.00
69848;BME280;57143;55.940;37.496;2023-11-21T11:41:02;99348.53;;;-7.07;100.00
69848;BME280;57143;55.940;37.496;2023-11-21T11:43:32;99352.06;;;-6.95;100.00
69848;BME280;57143;55.940;37.496;2023-11-21T11:46:08;99347.59;;;-6.95;100.00
69848;BME280;57143;55.940;37.496;2023-11-21T11:48:37;99356.91;;;-7.02;100.00
69848;BME280;57143;55.940;37.496;2023-11-21T11:51:09;99341.38;;;-7.05;100.00
69848;BME280;57143;55.940;37.496;2023-11-21T11:53:41;99347.72;;;-6.96;100.00
69848;BME280;57143;55.940;37.496;2023-11-21T11:56:25;99352.00;;;-7.06;100.00
69848;BME280;57143;55.940;37.496;2023-11-21T11:58:55;99348.31;;;-6.93;100.00
69848;BME280;57143;55.940;37.496;2023-11-21T12:01:25;99308.44;;;-7.22;100.00
69848;BME280;57143;55.940;37.496;2023-11-21T12:04:23;99348.66;;;-7.20;100.00
69848;BME280;57143;55.940;37.496;2023-11-21T12:06:59;99349.13;;;-7.15;100.00
69848;BME280;57143;55.940;37.496;2023-11-21T12:09:30;99357.34;;;-7.19;100.00
69848;BME280;57143;55.940;37.496;2023-11-21T12:11:58;99362.59;;;-7.30;100.00
69848;BME280;57143;55.940;37.496;2023-11-21T12:14:28;99364.88;;;-7.26;100.00
69848;BME280;57143;55.940;37.496;2023-11-21T12:16:57;99376.50;;;-7.17;100.00
69848;BME280;57143;55.940;37.496;2023-11-21T12:19:25;99376.16;;;-7.13;100.00
69848;BME280;57143;55.940;37.496;2023-11-21T12:21:53;99339.34;;;-7.36;100.00
69848;BME280;57143;55.940;37.496;2023-11-21T12:24:21;99379.38;;;-7.20;100.00
69848;BME280;57143;55.940;37.496;2023-11-21T12:26:49;99393.09;;;-7.04;100.00
69848;BME280;57143;55.940;37.496;2023-11-21T12:29:16;99369.69;;;-7.20;100.00
69848;BME280;57143;55.940;37.496;2023-11-21T12:31:45;99381.94;;;-7.07;100.00
69848;BME280;57143;55.940;37.496;2023-11-21T12:34:15;99390.22;;;-7.01;100.00
69848;BME280;57143;55.940;37.496;2023-11-21T12:36:43;99376.50;;;-7.17;100.00
69848;BME280;57143;55.940;37.496;2023-11-21T12:39:11;99400.38;;;-7.07;100.00
69848;BME280;57143;55.940;37.496;2023-11-21T12:41:40;99366.84;;;-7.17;100.00
69848;BME280;57143;55.940;37.496;2023-11-21T12:44:12;99363.00;;;-7.13;100.00
69848;BME280;57143;55.940;37.496;2023-11-21T12:46:42;99394.25;;;-7.08;100.00